sensor_id;sensor_type;location;lat;lon;timestamp;pressure;altitude;pressure_sealevel;temperature;humidity
50650;BME280;36621;60.058;30.346;2023-02-28T00:00:09;100889.59;;;1.73;73.08
50650;BME280;36621;60.058;30.346;2023-02-28T00:07:42;100886.88;;;1.73;73.32
50650;BME280;36621;60.058;30.346;2023-02-28T00:15:15;100872.19;;;1.69;73.99
50650;BME280;36621;60.058;30.346;2023-02-28T00:22:49;100875.31;;;1.79;73.91
50650;BME280;36621;60.058;30.346;2023-02-28T00:30:23;100836.81;;;1.65;73.55
50650;BME280;36621;60.058;30.346;2023-02-28T00:37:55;100857.88;;;1.88;73.45
50650;BME280;36621;60.058;30.346;2023-02-28T00:45:27;100824.34;;;1.78;73.82
50650;BME280;36621;60.058;30.346;2023-02-28T00:52:59;100708.19;;;1.15;73.51
50650;BME280;36621;60.058;30.346;2023-02-28T01:00:32;100816.78;;;2.06;73.21
50650;BME280;36621;60.058;30.346;2023-02-28T01:08:04;100816.59;;;2.08;73.20
50650;BME280;36621;60.058;30.346;2023-02-28T01:15:38;100798.13;;;2.05;73.21
50650;BME280;36621;60.058;30.346;2023-02-28T01:23:12;100802.84;;;2.16;73.08
50650;BME280;36621;60.058;30.346;2023-02-28T01:30:48;100771.19;;;2.05;72.84
50650;BME280;36621;60.058;30.346;2023-02-28T01:38:20;100775.69;;;2.18;72.77
50650;BME280;36621;60.058;30.346;2023-02-28T01:45:54;100761.53;;;2.29;72.54
50650;BME280;36621;60.058;30.346;2023-02-28T01:53:29;100759.94;;;2.21;72.59
50650;BME280;36621;60.058;30.346;2023-02-28T02:01:03;100772.06;;;2.37;72.05
50650;BME280;36621;60.058;30.346;2023-02-28T02:08:36;100765.84;;;2.37;72.27
50650;BME280;36621;60.058;30.346;2023-02-28T02:16:23;100731.09;;;2.29;72.08
50650;BME280;36621;60.058;30.346;2023-02-28T02:32:27;100741.88;;;2.54;71.65
50650;BME280;36621;60.058;30.346;2023-02-28T02:40:05;100732.78;;;2.48;71.62
50650;BME280;36621;60.058;30.346;2023-02-28T02:47:40;100708.22;;;2.38;71.14
50650;BME280;36621;60.058;30.346;2023-02-28T02:55:14;100736.28;;;2.55;71.33
50650;BME280;36621;60.058;30.346;2023-02-28T03:02:47;100697.44;;;2.38;71.37
50650;BME280;36621;60.058;30.346;2023-02-28T03:10:44;100682.00;;;2.52;71.14
50650;BME280;36621;60.058;30.346;2023-02-28T03:18:28;100698.72;;;2.60;71.21
50650;BME280;36621;60.058;30.346;2023-02-28T03:26:06;100669.22;;;2.40;70.75
50650;BME280;36621;60.058;30.346;2023-02-28T03:33:42;100681.16;;;2.51;70.99
50650;BME280;36621;60.058;30.346;2023-02-28T03:41:31;100684.31;;;2.92;69.65
50650;BME280;36621;60.058;30.346;2023-02-28T03:49:09;100665.81;;;2.52;70.43
50650;BME280;36621;60.058;30.346;2023-02-28T03:56:50;100685.69;;;2.57;70.59
50650;BME280;36621;60.058;30.346;2023-02-28T04:04:25;100680.81;;;2.41;70.02
50650;BME280;36621;60.058;30.346;2023-02-28T04:11:58;100695.22;;;2.28;70.28
50650;BME280;36621;60.058;30.346;2023-02-28T04:19:30;100680.03;;;2.08;70.46
50650;BME280;36621;60.058;30.346;2023-02-28T04:27:03;100660.13;;;1.78;70.13
50650;BME280;36621;60.058;30.346;2023-02-28T04:34:35;100649.06;;;1.61;70.33
50650;BME280;36621;60.058;30.346;2023-02-28T04:42:09;100653.75;;;1.72;70.96
50650;BME280;36621;60.058;30.346;2023-02-28T04:49:41;100669.47;;;1.75;70.65
50650;BME280;36621;60.058;30.346;2023-02-28T04:57:14;100651.25;;;1.70;71.14
50650;BME280;36621;60.058;30.346;2023-02-28T05:04:46;100669.94;;;1.97;70.73
50650;BME280;36621;60.058;30.346;2023-02-28T05:12:19;100689.91;;;2.21;70.31
50650;BME280;36621;60.058;30.346;2023-02-28T05:19:51;100668.72;;;2.25;70.21
50650;BME280;36621;60.058;30.346;2023-02-28T05:27:26;100659.19;;;2.22;70.58
50650;BME280;36621;60.058;30.346;2023-02-28T05:34:59;100689.13;;;2.39;70.07
50650;BME280;36621;60.058;30.346;2023-02-28T05:42:34;100732.91;;;2.35;70.67
50650;BME280;36621;60.058;30.346;2023-02-28T05:50:07;100738.47;;;2.08;70.59
50650;BME280;36621;60.058;30.346;2023-02-28T06:13:57;100729.25;;;2.22;70.26
50650;BME280;36621;60.058;30.346;2023-02-28T06:21:31;100754.03;;;2.38;69.25
50650;BME280;36621;60.058;30.346;2023-02-28T06:29:04;100696.06;;;1.97;68.08
50650;BME280;36621;60.058;30.346;2023-02-28T06:36:37;100819.47;;;2.45;67.23
50650;BME280;36621;60.058;30.346;2023-02-28T06:44:13;100822.38;;;2.50;65.85
50650;BME280;36621;60.058;30.346;2023-02-28T06:51:45;100864.63;;;2.56;63.32
50650;BME280;36621;60.058;30.346;2023-02-28T06:59:20;100877.63;;;2.28;58.14
50650;BME280;36621;60.058;30.346;2023-02-28T14:59:28;101039.22;;;1.20;30.93
50650;BME280;36621;60.058;30.346;2023-02-28T15:07:10;100954.47;;;0.63;31.46
50650;BME280;36621;60.058;30.346;2023-02-28T15:14:45;100954.22;;;0.51;31.28
50650;BME280;36621;60.058;30.346;2023-02-28T15:22:24;100948.56;;;0.32;31.63
50650;BME280;36621;60.058;30.346;2023-02-28T15:30:06;101008.00;;;0.64;32.53
50650;BME280;36621;60.058;30.346;2023-02-28T15:37:40;101014.59;;;0.62;32.94
50650;BME280;36621;60.058;30.346;2023-02-28T15:54:52;101062.97;;;0.55;33.45
50650;BME280;36621;60.058;30.346;2023-02-28T16:02:30;101026.78;;;0.23;34.50
50650;BME280;36621;60.058;30.346;2023-02-28T16:10:04;101021.34;;;0.09;34.59
50650;BME280;36621;60.058;30.346;2023-02-28T16:17:38;101055.25;;;0.17;34.55
50650;BME280;36621;60.058;30.346;2023-02-28T16:25:14;101073.31;;;0.23;35.27
50650;BME280;36621;60.058;30.346;2023-02-28T16:32:48;100884.44;;;-1.04;35.19
50650;BME280;36621;60.058;30.346;2023-02-28T16:40:23;101049.75;;;-0.03;35.74
50650;BME280;36621;60.058;30.346;2023-02-28T16:47:57;101081.81;;;0.05;35.59
50650;BME280;36621;60.058;30.346;2023-02-28T16:55:31;101054.09;;;-0.02;35.37
50650;BME280;36621;60.058;30.346;2023-02-28T17:03:04;101064.84;;;-0.02;35.82
50650;BME280;36621;60.058;30.346;2023-02-28T17:10:39;101063.75;;;-0.08;36.51
50650;BME280;36621;60.058;30.346;2023-02-28T17:18:19;100862.56;;;-1.29;36.23
50650;BME280;36621;60.058;30.346;2023-02-28T17:26:15;101043.84;;;0.08;36.42
50650;BME280;36621;60.058;30.346;2023-02-28T17:33:56;101037.19;;;-0.24;36.16
50650;BME280;36621;60.058;30.346;2023-02-28T17:41:32;100948.53;;;-0.88;36.52
50650;BME280;36621;60.058;30.346;2023-02-28T17:49:06;101026.88;;;-0.49;36.03
50650;BME280;36621;60.058;30.346;2023-02-28T17:56:43;100893.19;;;-1.38;36.64
50650;BME280;36621;60.058;30.346;2023-02-28T18:04:16;101003.56;;;-0.70;36.77
50650;BME280;36621;60.058;30.346;2023-02-28T18:11:51;101003.81;;;-0.65;37.50
50650;BME280;36621;60.058;30.346;2023-02-28T18:19:24;100995.59;;;-0.63;37.67
50650;BME280;36621;60.058;30.346;2023-02-28T18:26:59;101025.63;;;-0.46;37.75
50650;BME280;36621;60.058;30.346;2023-02-28T18:34:32;100967.00;;;-0.78;37.56
50650;BME280;36621;60.058;30.346;2023-02-28T18:42:05;100930.28;;;-0.99;37.79
50650;BME280;36621;60.058;30.346;2023-02-28T18:49:38;100981.28;;;-0.71;37.95
50650;BME280;36621;60.058;30.346;2023-02-28T18:57:18;100847.13;;;-1.49;38.56
